Time;durP1;ratioP1;P1;durP2;ratioP2;P2;SDS_P1;SDS_P2;PMS_P1;PMS_P2;Temp;Humidity;BMP_temperature;BMP_pressure;BME280_temperature;BME280_humidity;BME280_pressure;Samples;Min_cycle;Max_cycle;Signal;HPM_P1;HPM_P2
2021/09/17 08:36:17;;;;;;;49.45;27.10;;;16.90;99.90;;;;;;5091009;27;20550;-70
2021/09/17 08:38:42;;;;;;;47.20;28.45;;;16.00;99.90;;;;;;5090826;28;20202;-71
2021/09/17 08:41:10;;;;;;;50.55;29.17;;;16.10;99.90;;;;;;5089485;28;20237;-71
2021/09/17 08:43:35;;;;;;;52.30;30.98;;;16.10;99.90;;;;;;5090828;28;20660;-71
2021/09/17 08:46:01;;;;;;;51.22;28.08;;;16.10;99.90;;;;;;5090715;28;20172;-71
2021/09/17 08:48:29;;;;;;;50.63;28.67;;;16.10;99.90;;;;;;5090708;28;20160;-71
2021/09/17 08:50:56;;;;;;;51.83;30.70;;;16.10;99.90;;;;;;5090658;28;20164;-71
2021/09/17 08:53:22;;;;;;;51.80;29.95;;;16.10;99.90;;;;;;5090621;28;20172;-71
2021/09/17 08:55:49;;;;;;;54.67;30.92;;;16.10;99.90;;;;;;5090420;28;20592;-71
2021/09/17 08:58:15;;;;;;;49.63;30.08;;;16.00;99.90;;;;;;5089256;28;20529;-71
2021/09/17 09:00:42;;;;;;;55.05;30.27;;;16.00;99.90;;;;;;5090435;28;20207;-71
2021/09/17 09:03:09;;;;;;;50.55;28.52;;;15.90;99.90;;;;;;5089135;28;20168;-71
2021/09/17 09:05:37;;;;;;;48.78;27.92;;;15.90;99.90;;;;;;5090460;28;20160;-71
2021/09/17 09:08:05;;;;;;;50.50;28.67;;;15.90;99.90;;;;;;5090322;28;20168;-71
2021/09/17 09:10:31;;;;;;;50.17;28.83;;;15.90;99.90;;;;;;5090245;28;20652;-71
2021/09/17 09:13:03;;;;;;;52.95;29.67;;;15.90;99.90;;;;;;5088921;28;20656;-71
2021/09/17 09:15:32;;;;;;;45.60;26.35;;;15.90;99.90;;;;;;5088855;28;20204;-72
2021/09/17 09:18:09;;;;;;;44.08;27.20;;;15.90;99.90;;;;;;5090174;28;20633;-71
2021/09/17 09:20:45;;;;;;;48.55;27.15;;;15.90;99.90;;;;;;5090062;28;20633;-71
2021/09/17 09:23:12;;;;;;;44.97;27.00;;;16.00;99.90;;;;;;5088677;28;20171;-71
2021/09/17 09:25:49;;;;;;;43.15;25.40;;;16.00;99.90;;;;;;5088773;28;20176;-71
2021/09/17 09:28:17;;;;;;;45.95;25.60;;;16.10;99.90;;;;;;5089933;28;20175;-71
2021/09/17 09:30:42;;;;;;;34.97;21.75;;;16.20;99.90;;;;;;5089888;28;20167;-71
2021/09/17 09:33:31;;;;;;;39.38;22.55;;;16.40;99.90;;;;;;5089809;28;20167;-71
2021/09/17 09:35:58;;;;;;;36.15;21.13;;;16.60;99.90;;;;;;5089579;28;20285;-71
2021/09/17 09:38:32;;;;;;;38.47;21.48;;;16.70;99.90;;;;;;5088505;28;20553;-71
2021/09/17 09:40:59;;;;;;;30.50;20.08;;;16.80;99.90;;;;;;5089741;28;20155;-71
2021/09/17 09:43:29;;;;;;;32.72;21.40;;;16.90;99.90;;;;;;5089713;28;20564;-71
2021/09/17 09:45:57;;;;;;;35.22;21.33;;;17.10;99.90;;;;;;5085880;28;20164;-71
2021/09/17 09:48:23;;;;;;;31.02;19.88;;;17.00;99.90;;;;;;5076107;28;20602;-71
2021/09/17 09:50:48;;;;;;;32.75;20.60;;;17.10;99.90;;;;;;5076032;28;20168;-71
2021/09/17 09:53:15;;;;;;;26.63;18.92;;;17.30;99.90;;;;;;5074722;28;20179;-71
2021/09/17 09:55:41;;;;;;;29.27;18.55;;;17.30;99.90;;;;;;5075919;28;20196;-71
2021/09/17 09:58:08;;;;;;;29.48;17.55;;;17.40;99.90;;;;;;5075932;28;20179;-71
2021/09/17 10:00:34;;;;;;;25.55;17.40;;;17.40;99.90;;;;;;5075752;28;20302;-71
2021/09/17 10:03:00;;;;;;;29.02;18.50;;;17.50;99.90;;;;;;5075824;28;20263;-71
2021/09/17 10:05:27;;;;;;;28.60;17.52;;;17.50;99.90;;;;;;5075807;28;20172;-71
2021/09/17 10:07:53;;;;;;;31.20;18.88;;;17.50;99.90;;;;;;5075790;28;20168;-71
2021/09/17 10:10:18;;;;;;;28.60;18.55;;;17.60;99.90;;;;;;5075755;28;20515;-71
2021/09/17 10:12:46;;;;;;;28.45;18.10;;;17.70;99.90;;;;;;5074394;28;20534;-71
2021/09/17 10:15:13;;;;;;;22.67;16.98;;;18.00;99.90;;;;;;5075530;28;20200;-71
2021/09/17 10:17:40;;;;;;;27.50;16.85;;;18.10;99.90;;;;;;5075618;28;20218;-71
2021/09/17 10:20:10;;;;;;;23.27;15.80;;;18.10;99.90;;;;;;5075510;28;20168;-71
2021/09/17 10:22:40;;;;;;;19.05;13.68;;;18.00;99.90;;;;;;5075447;28;20171;-71
2021/09/17 10:25:24;;;;;;;22.80;14.52;;;18.00;99.90;;;;;;5075422;28;20237;-71
2021/09/17 10:28:08;;;;;;;22.40;13.30;;;17.90;99.90;;;;;;5075426;28;20242;-71
2021/09/17 10:30:37;;;;;;;21.30;12.55;;;18.00;99.90;;;;;;5075289;28;20214;-71
2021/09/17 10:33:03;;;;;;;20.88;13.60;;;18.20;99.90;;;;;;5075240;28;20168;-71
2021/09/17 10:35:42;;;;;;;18.55;13.38;;;18.30;99.90;;;;;;5075031;28;20801;-71
2021/09/17 10:38:15;;;;;;;19.63;13.77;;;18.40;99.90;;;;;;5075166;28;20164;-71
2021/09/17 10:40:47;;;;;;;15.65;11.85;;;18.40;99.90;;;;;;5075071;28;20645;-71
2021/09/17 10:43:15;;;;;;;17.80;10.23;;;18.50;99.90;;;;;;5075101;28;20200;-71
2021/09/17 10:45:48;;;;;;;21.67;11.43;;;18.50;99.90;;;;;;5075016;28;20577;-71
2021/09/17 10:48:18;;;;;;;16.83;11.05;;;18.40;99.90;;;;;;5074941;28;20527;-71
2021/09/17 10:50:52;;;;;;;15.30;10.65;;;18.40;99.90;;;;;;5074975;28;20256;-71
2021/09/17 10:53:39;;;;;;;21.02;12.10;;;18.40;99.90;;;;;;5074967;28;20251;-71
2021/09/17 10:56:12;;;;;;;16.98;9.98;;;18.40;99.90;;;;;;5074785;28;20559;-71
2021/09/17 10:58:40;;;;;;;12.43;10.43;;;18.40;99.90;;;;;;5073752;28;20192;-71
2021/09/17 11:01:06;;;;;;;18.17;11.32;;;18.40;99.90;;;;;;5074648;28;20537;-71
2021/09/17 11:03:41;;;;;;;18.33;10.65;;;18.30;99.90;;;;;;5074679;28;20164;-71
2021/09/17 11:06:22;;;;;;;11.68;9.15;;;18.30;99.90;;;;;;5074598;28;20167;-71
2021/09/17 11:09:05;;;;;;;13.90;10.73;;;18.40;99.90;;;;;;5074489;28;20202;-71
2021/09/17 11:11:41;;;;;;;15.77;12.68;;;18.50;99.90;;;;;;5074367;28;20176;-71
2021/09/17 11:14:16;;;;;;;16.40;12.50;;;18.60;99.90;;;;;;5073115;28;20694;-71
2021/09/17 11:16:44;;;;;;;14.75;11.32;;;18.60;99.90;;;;;;5074408;28;20163;-71
2021/09/17 11:19:13;;;;;;;14.95;11.88;;;18.60;99.90;;;;;;5074386;28;20168;-71
2021/09/17 11:21:40;;;;;;;14.95;10.20;;;18.60;99.90;;;;;;5074341;28;20555;-71
2021/09/17 11:24:16;;;;;;;16.05;10.68;;;18.70;99.90;;;;;;5074256;28;20172;-71
2021/09/17 11:26:44;;;;;;;11.13;9.30;;;18.80;99.90;;;;;;5074253;28;20556;-71
2021/09/17 11:29:13;;;;;;;14.30;10.82;;;18.80;99.90;;;;;;5074181;28;20201;-71
2021/09/17 11:31:44;;;;;;;13.77;10.90;;;18.90;99.90;;;;;;5074064;28;20166;-71
2021/09/17 11:34:12;;;;;;;16.55;10.80;;;18.90;99.90;;;;;;5073764;28;20772;-71
2021/09/17 11:36:43;;;;;;;12.82;10.10;;;18.90;99.90;;;;;;5074063;28;20557;-71
2021/09/17 11:39:20;;;;;;;16.63;11.80;;;19.00;99.90;;;;;;5073979;28;20168;-71
2021/09/17 11:42:14;;;;;;;14.93;10.20;;;19.20;99.90;;;;;;5073988;28;20250;-71
2021/09/17 11:44:48;;;;;;;14.02;11.52;;;19.30;99.90;;;;;;5073971;28;20156;-69
2021/09/17 11:47:14;;;;;;;15.07;11.77;;;19.30;99.90;;;;;;5073796;28;20254;-68
2021/09/17 11:49:42;;;;;;;20.17;12.13;;;19.40;99.90;;;;;;5073791;28;20243;-71
2021/09/17 11:52:13;;;;;;;15.63;10.25;;;19.40;99.90;;;;;;5073808;28;20255;-71
2021/09/17 11:54:39;;;;;;;17.90;12.05;;;19.30;99.90;;;;;;5073637;28;20219;-71
2021/09/17 11:57:07;;;;;;;20.00;12.60;;;19.40;99.90;;;;;;5073720;28;20506;-71
2021/09/17 11:59:38;;;;;;;14.40;11.23;;;19.20;99.90;;;;;;5073570;28;20168;-71
2021/09/17 12:02:14;;;;;;;15.05;12.52;;;19.10;99.90;;;;;;5073595;28;20175;-71
2021/09/17 12:04:42;;;;;;;13.95;11.73;;;18.90;99.90;;;;;;5073550;28;20657;-71
2021/09/17 12:07:08;;;;;;;18.20;13.75;;;18.90;99.90;;;;;;5073574;28;20172;-70
2021/09/17 12:09:34;;;;;;;14.75;11.82;;;18.80;99.90;;;;;;5073251;28;20533;-71
2021/09/17 12:12:00;;;;;;;14.88;11.77;;;18.80;99.90;;;;;;5073535;28;20176;-71
2021/09/17 12:14:26;;;;;;;17.52;13.65;;;18.90;99.90;;;;;;5072092;28;20196;-71
2021/09/17 12:16:51;;;;;;;17.35;13.07;;;18.90;99.90;;;;;;5072161;28;20188;-71
2021/09/17 12:19:17;;;;;;;17.17;13.73;;;19.00;99.90;;;;;;5073448;28;20168;-71
2021/09/17 12:21:42;;;;;;;20.25;13.90;;;19.00;99.90;;;;;;5073377;28;20191;-71
2021/09/17 12:24:22;;;;;;;22.98;14.40;;;19.00;99.90;;;;;;5073298;28;20167;-71
2021/09/17 12:26:55;;;;;;;26.00;14.38;;;19.00;99.90;;;;;;5073521;28;20168;-71
2021/09/17 12:29:23;;;;;;;16.50;12.80;;;18.90;99.90;;;;;;5073365;28;20160;-71
2021/09/17 12:31:48;;;;;;;19.88;14.45;;;18.90;99.90;;;;;;5073348;28;20186;-71
2021/09/17 12:34:17;;;;;;;20.75;15.18;;;18.90;99.90;;;;;;5072932;28;20711;-71
2021/09/17 12:36:49;;;;;;;21.48;14.77;;;18.90;99.90;;;;;;5073236;28;20169;-71
2021/09/17 12:39:20;;;;;;;20.02;15.32;;;18.90;99.90;;;;;;5073256;28;20614;-71
2021/09/17 12:41:48;;;;;;;24.33;15.95;;;19.00;99.90;;;;;;5073234;28;20164;-71
2021/09/17 12:44:16;;;;;;;18.88;14.40;;;19.00;99.90;;;;;;5073164;28;20172;-71
2021/09/17 12:46:48;;;;;;;17.17;14.07;;;19.10;99.90;;;;;;5071901;28;20168;-71
2021/09/17 12:49:15;;;;;;;19.27;14.73;;;19.20;99.90;;;;;;5073170;28;20199;-71
2021/09/17 12:51:52;;;;;;;21.38;16.73;;;19.30;99.90;;;;;;5071834;28;20164;-71
2021/09/17 12:54:18;;;;;;;22.92;16.85;;;19.20;99.90;;;;;;5073035;28;20191;-71
2021/09/17 12:56:44;;;;;;;18.02;13.77;;;19.00;99.90;;;;;;5073092;28;20173;-71
2021/09/17 12:59:12;;;;;;;26.05;14.95;;;19.10;99.90;;;;;;5073044;28;20204;-71
2021/09/17 13:01:38;;;;;;;19.38;14.95;;;19.10;99.90;;;;;;5072898;28;20249;-71
2021/09/17 13:04:04;;;;;;;16.60;14.07;;;19.10;99.90;;;;;;5072927;28;20196;-71
2021/09/17 13:06:30;;;;;;;26.90;14.68;;;19.20;99.90;;;;;;5072957;28;20192;-71
2021/09/17 13:08:55;;;;;;;19.45;15.32;;;19.10;99.90;;;;;;5072909;28;20652;-71
2021/09/17 13:11:21;;;;;;;16.63;13.73;;;19.20;99.90;;;;;;5072919;28;20168;-71
2021/09/17 13:13:47;;;;;;;18.50;15.50;;;19.10;99.90;;;;;;5072929;28;20172;-71
2021/09/17 13:16:13;;;;;;;19.33;14.50;;;19.00;99.90;;;;;;5072766;28;20191;-71
2021/09/17 13:18:39;;;;;;;19.27;14.73;;;19.10;99.90;;;;;;5072945;28;20160;-71
2021/09/17 13:21:04;;;;;;;19.17;14.93;;;19.10;99.90;;;;;;5073287;28;20521;-71
2021/09/17 13:23:30;;;;;;;17.40;13.60;;;19.20;99.90;;;;;;5076588;28;20247;-71
2021/09/17 13:25:55;;;;;;;15.80;12.95;;;19.40;99.90;;;;;;5076530;28;20176;-71
2021/09/17 13:28:21;;;;;;;15.05;12.75;;;19.50;99.90;;;;;;5075194;28;20629;-71
2021/09/17 13:30:47;;;;;;;14.68;12.32;;;19.60;99.90;;;;;;5076348;28;20168;-71
2021/09/17 13:33:13;;;;;;;13.65;12.27;;;19.80;99.90;;;;;;5076393;28;20653;-71
2021/09/17 13:35:45;;;;;;;14.77;12.05;;;19.90;99.90;;;;;;5076197;28;20265;-71
2021/09/17 13:38:13;;;;;;;14.18;12.52;;;20.10;99.90;;;;;;5076405;28;20554;-71
2021/09/17 13:40:39;;;;;;;17.02;12.27;;;20.40;99.90;;;;;;5076198;28;20210;-71
2021/09/17 13:43:05;;;;;;;17.35;15.40;;;20.50;99.90;;;;;;5076118;28;20191;-71
2021/09/17 13:45:30;;;;;;;16.50;14.25;;;20.60;99.90;;;;;;5076181;28;20176;-71
2021/09/17 13:47:56;;;;;;;19.70;14.63;;;20.70;99.90;;;;;;5076007;28;20222;-71
2021/09/17 13:50:26;;;;;;;21.38;16.02;;;20.80;99.90;;;;;;5076141;28;20176;-71
2021/09/17 13:52:54;;;;;;;16.10;13.57;;;21.00;99.90;;;;;;5076014;28;20167;-71
2021/09/17 13:55:24;;;;;;;16.15;14.52;;;21.00;99.90;;;;;;5075907;28;20222;-71
2021/09/17 13:57:54;;;;;;;22.08;16.60;;;21.10;99.90;;;;;;5075817;28;20172;-71
2021/09/17 14:00:21;;;;;;;21.20;15.73;;;21.10;99.90;;;;;;5075785;28;20187;-71
2021/09/17 14:02:47;;;;;;;20.27;15.98;;;20.80;99.90;;;;;;5075822;28;20171;-71
2021/09/17 14:05:13;;;;;;;22.15;17.35;;;20.60;99.90;;;;;;5075811;28;20197;-71
2021/09/17 14:07:38;;;;;;;18.95;17.00;;;20.40;99.90;;;;;;5075716;28;20206;-71
2021/09/17 14:10:06;;;;;;;19.40;17.23;;;20.10;99.90;;;;;;5076185;28;20174;-71
2021/09/17 14:12:32;;;;;;;23.90;18.27;;;20.10;99.90;;;;;;5075617;28;20495;-71
2021/09/17 14:14:58;;;;;;;22.70;17.70;;;20.00;99.90;;;;;;5075450;28;20210;-71
2021/09/17 14:17:24;;;;;;;19.60;16.40;;;19.90;99.90;;;;;;5075662;28;20247;-71
2021/09/17 14:19:49;;;;;;;24.92;17.38;;;19.80;99.90;;;;;;5075498;28;20168;-71
2021/09/17 14:22:15;;;;;;;21.10;17.90;;;19.70;99.90;;;;;;5074087;28;20640;-71
2021/09/17 14:24:41;;;;;;;24.58;17.98;;;19.70;99.90;;;;;;5075495;28;20179;-71
2021/09/17 14:27:07;;;;;;;23.70;17.90;;;19.50;99.90;;;;;;5075425;28;20522;-71
2021/09/17 14:29:34;;;;;;;22.48;17.33;;;19.50;99.90;;;;;;5075372;28;20247;-70
2021/09/17 14:32:00;;;;;;;18.77;16.77;;;19.40;99.90;;;;;;5074971;28;20265;-71
2021/09/17 14:34:26;;;;;;;19.08;15.52;;;19.40;99.90;;;;;;5074955;28;20215;-71
2021/09/17 14:36:52;;;;;;;21.40;16.40;;;19.30;99.90;;;;;;5075301;28;20223;-70
2021/09/17 14:39:17;;;;;;;23.33;17.30;;;19.30;99.90;;;;;;5075093;28;20186;-71
2021/09/17 14:41:43;;;;;;;20.65;16.48;;;19.30;99.90;;;;;;5075161;28;20494;-71
2021/09/17 14:44:10;;;;;;;17.60;14.82;;;19.20;99.90;;;;;;5075111;28;20168;-71
2021/09/17 14:46:36;;;;;;;20.02;14.77;;;19.10;99.90;;;;;;5075051;28;20233;-71
2021/09/17 14:49:01;;;;;;;15.27;13.80;;;18.90;99.90;;;;;;5073707;28;20637;-70
2021/09/17 14:51:27;;;;;;;18.73;14.95;;;18.90;99.90;;;;;;5074954;28;20200;-70
2021/09/17 14:53:52;;;;;;;17.77;15.02;;;18.90;99.90;;;;;;5074805;28;20163;-70
2021/09/17 14:56:19;;;;;;;34.05;16.20;;;18.80;99.90;;;;;;5074674;28;20664;-71
2021/09/17 14:58:44;;;;;;;18.58;16.58;;;18.70;99.90;;;;;;5074752;28;20643;-70
2021/09/17 15:01:10;;;;;;;17.42;14.35;;;18.70;99.90;;;;;;5074649;28;20179;-71
2021/09/17 15:03:36;;;;;;;17.42;13.93;;;18.60;99.90;;;;;;5074711;28;20164;-70
2021/09/17 15:06:02;;;;;;;19.58;15.00;;;18.50;99.90;;;;;;5073370;28;20548;-71
2021/09/17 15:08:28;;;;;;;18.42;14.88;;;18.50;99.90;;;;;;5074522;28;20172;-71
2021/09/17 15:10:54;;;;;;;21.52;15.20;;;18.50;99.90;;;;;;5074494;28;20168;-71
2021/09/17 15:13:21;;;;;;;17.48;15.15;;;18.50;99.90;;;;;;5074506;28;20178;-70
2021/09/17 15:15:49;;;;;;;17.10;15.13;;;18.50;99.90;;;;;;5074339;28;20719;-70
2021/09/17 15:18:18;;;;;;;26.80;16.33;;;18.40;99.90;;;;;;5074335;28;20574;-70
2021/09/17 15:20:46;;;;;;;21.80;15.73;;;18.40;99.90;;;;;;5074314;28;20182;-71
2021/09/17 15:23:11;;;;;;;17.25;14.38;;;18.40;99.90;;;;;;5072917;28;20685;-71
2021/09/17 15:25:37;;;;;;;18.77;15.20;;;18.40;99.90;;;;;;5074202;28;20199;-71
2021/09/17 15:28:03;;;;;;;22.58;15.50;;;18.40;99.90;;;;;;5074085;28;20179;-71
2021/09/17 15:30:28;;;;;;;18.42;15.20;;;18.40;99.90;;;;;;5074094;28;20176;-71
2021/09/17 15:32:54;;;;;;;21.35;15.25;;;18.30;99.90;;;;;;5074063;28;20401;-71
2021/09/17 15:35:19;;;;;;;15.63;13.48;;;18.30;99.90;;;;;;5073825;28;20227;-71
2021/09/17 15:37:45;;;;;;;22.17;16.23;;;18.40;99.90;;;;;;5073971;28;20217;-71
2021/09/17 15:40:11;;;;;;;20.27;15.90;;;18.40;99.90;;;;;;5073948;28;20164;-71
2021/09/17 15:42:37;;;;;;;18.48;14.90;;;18.50;99.90;;;;;;5072582;28;20175;-71
2021/09/17 15:45:03;;;;;;;19.00;15.70;;;18.60;99.90;;;;;;5073395;28;20244;-71
2021/09/17 15:47:30;;;;;;;17.77;15.68;;;18.70;99.90;;;;;;5073829;28;20290;-71
2021/09/17 15:49:56;;;;;;;21.90;15.45;;;18.90;99.90;;;;;;5073828;28;20171;-71
2021/09/17 15:52:22;;;;;;;19.70;15.88;;;19.00;99.90;;;;;;5073696;28;20180;-70
2021/09/17 15:54:47;;;;;;;21.55;16.25;;;19.10;99.90;;;;;;5073650;28;20653;-70
2021/09/17 15:57:13;;;;;;;20.50;16.27;;;19.30;99.90;;;;;;5073672;28;20182;-70
2021/09/17 15:59:38;;;;;;;22.00;17.02;;;19.50;99.90;;;;;;5073466;28;20168;-71
2021/09/17 16:02:07;;;;;;;20.45;15.88;;;19.50;99.90;;;;;;5073483;28;20171;-70
2021/09/17 16:04:33;;;;;;;18.52;15.23;;;19.70;99.90;;;;;;5073438;28;20178;-71
2021/09/17 16:06:59;;;;;;;18.90;15.13;;;19.80;99.90;;;;;;5073400;28;20164;-71
2021/09/17 16:09:25;;;;;;;21.58;16.20;;;19.80;99.90;;;;;;5073395;28;20246;-71
2021/09/17 16:11:51;;;;;;;21.63;16.50;;;20.00;99.90;;;;;;5073348;28;20202;-71
2021/09/17 16:14:17;;;;;;;21.65;15.48;;;20.10;99.90;;;;;;5073284;28;20160;-71
2021/09/17 16:16:43;;;;;;;19.52;14.27;;;20.10;99.90;;;;;;5073351;28;20171;-70
2021/09/17 16:19:08;;;;;;;20.40;15.85;;;20.00;99.90;;;;;;5073294;28;20160;-70
2021/09/17 16:21:34;;;;;;;19.75;14.52;;;20.00;99.90;;;;;;5073131;28;20621;-71
2021/09/17 16:23:59;;;;;;;19.42;15.18;;;19.90;99.90;;;;;;5073267;28;20168;-70
2021/09/17 16:26:25;;;;;;;18.55;14.48;;;19.80;99.90;;;;;;5073189;28;20172;-70
2021/09/17 16:28:51;;;;;;;19.50;14.70;;;19.70;99.90;;;;;;5073263;28;20217;-70
2021/09/17 16:31:18;;;;;;;18.67;14.05;;;19.60;99.90;;;;;;5073126;28;20625;-70
2021/09/17 16:33:45;;;;;;;20.17;14.57;;;19.30;99.90;;;;;;5073118;28;20175;-70
2021/09/17 16:36:10;;;;;;;17.50;14.88;;;19.10;99.90;;;;;;5072826;28;20685;-70
2021/09/17 16:38:36;;;;;;;16.92;14.45;;;19.00;99.90;;;;;;5073033;28;20174;-70
2021/09/17 16:41:02;;;;;;;20.40;15.25;;;18.90;99.90;;;;;;5073003;28;20164;-70
2021/09/17 16:43:27;;;;;;;19.98;14.43;;;18.80;99.90;;;;;;5073024;28;20160;-70
2021/09/17 16:45:53;;;;;;;17.55;14.55;;;18.80;99.90;;;;;;5073020;28;20202;-70
2021/09/17 16:48:18;;;;;;;23.55;16.02;;;18.70;99.90;;;;;;5072961;28;20229;-70
2021/09/17 16:50:44;;;;;;;16.05;14.23;;;18.60;99.90;;;;;;5072894;28;20531;-70
2021/09/17 16:53:10;;;;;;;23.00;16.17;;;18.60;99.90;;;;;;5072899;28;20225;-70
2021/09/17 16:55:35;;;;;;;16.77;14.98;;;18.60;99.90;;;;;;5072823;28;20202;-70
2021/09/17 16:58:01;;;;;;;18.48;15.57;;;18.50;99.90;;;;;;5076641;28;20203;-70
2021/09/17 17:00:27;;;;;;;23.50;17.50;;;18.50;99.90;;;;;;5076826;28;20187;-70
2021/09/17 17:02:53;;;;;;;21.52;15.80;;;18.40;99.90;;;;;;5076816;28;20164;-70
2021/09/17 17:05:21;;;;;;;18.17;14.85;;;18.40;99.90;;;;;;5076805;28;20226;-70
2021/09/17 17:07:46;;;;;;;23.55;14.70;;;18.40;99.90;;;;;;5076758;28;20660;-70
2021/09/17 17:10:12;;;;;;;19.02;13.98;;;18.30;99.90;;;;;;5076711;28;20171;-70
2021/09/17 17:12:38;;;;;;;17.95;14.75;;;18.20;99.90;;;;;;5076655;28;20196;-71
2021/09/17 17:15:06;;;;;;;19.95;14.65;;;18.20;99.90;;;;;;5076571;28;20672;-70
2021/09/17 17:17:31;;;;;;;17.02;14.45;;;18.10;99.90;;;;;;5076494;28;20172;-70
2021/09/17 17:19:57;;;;;;;23.13;14.48;;;18.00;99.90;;;;;;5076487;28;20163;-71
2021/09/17 17:22:22;;;;;;;15.02;13.25;;;18.00;99.90;;;;;;5076467;28;20243;-71
2021/09/17 17:24:48;;;;;;;15.18;13.52;;;17.90;99.90;;;;;;5076368;28;20168;-69
2021/09/17 17:27:14;;;;;;;17.88;14.45;;;17.70;99.90;;;;;;5076325;28;20251;-69
